UAL2487 KLAX-KORD
Flight info
| Callsign | UAL2487 |
|---|---|
| Flight time | 3h 40m |
| Altitude | 33000 |
| Route | ORCKA5 LAS BAWER HVE J60 DBL/N0455F350 LBF FOD MYRRS FYTTE7 |
| Aircraft | A21N/M-SDE3FGHIRWY/LB1 |
Departure
| Time | 2026-04-21 21:33 |
|---|---|
| Airport | Los Angeles International Airport (KLAX) |
Arrival
| Time | 2026-04-22 01:14 |
|---|---|
| Airport | Chicago O'Hare International Airport (KORD) |
| Time | Latitude | Longitude | Altitude | Speed | Heading |
|---|---|---|---|---|---|
| 2026-04-21 21:10 | 33.94276 | -118.39803 | 120 ft | 0 kts | 65° |
| 2026-04-21 21:22 | 33.94275 | -118.39806 | 120 ft | 2 kts | 65° |
| 2026-04-21 21:22 | 33.94270 | -118.39822 | 120 ft | 2 kts | 76° |
| 2026-04-21 21:22 | 33.94267 | -118.39841 | 120 ft | 2 kts | 84° |
| 2026-04-21 21:22 | 33.94266 | -118.39857 | 120 ft | 0 kts | 83° |
| 2026-04-21 21:23 | 33.94265 | -118.39853 | 120 ft | 1 kts | 110° |
| 2026-04-21 21:23 | 33.94256 | -118.39849 | 120 ft | 2 kts | 185° |
| 2026-04-21 21:23 | 33.94239 | -118.39849 | 120 ft | 3 kts | 172° |
| 2026-04-21 21:23 | 33.94192 | -118.39841 | 120 ft | 7 kts | 173° |
| 2026-04-21 21:24 | 33.94139 | -118.39834 | 120 ft | 7 kts | 173° |
| 2026-04-21 21:24 | 33.94107 | -118.39829 | 120 ft | 2 kts | 173° |
| 2026-04-21 21:24 | 33.94104 | -118.39829 | 120 ft | 0 kts | 173° |
| 2026-04-21 21:26 | 33.94103 | -118.39829 | 120 ft | 0 kts | 173° |
| 2026-04-21 21:27 | 33.94091 | -118.39828 | 120 ft | 3 kts | 178° |
| 2026-04-21 21:27 | 33.94052 | -118.39827 | 120 ft | 7 kts | 178° |
| 2026-04-21 21:27 | 33.93984 | -118.39818 | 120 ft | 11 kts | 170° |
| 2026-04-21 21:27 | 33.93916 | -118.39778 | 120 ft | 11 kts | 127° |
| 2026-04-21 21:28 | 33.93911 | -118.39683 | 120 ft | 11 kts | 84° |
| 2026-04-21 21:28 | 33.93921 | -118.39583 | 120 ft | 12 kts | 83° |
| 2026-04-21 21:28 | 33.93943 | -118.39376 | 120 ft | 12 kts | 83° |
| 2026-04-21 21:29 | 33.93953 | -118.39269 | 120 ft | 13 kts | 83° |
| 2026-04-21 21:29 | 33.93966 | -118.39154 | 118 ft | 14 kts | 83° |
| 2026-04-21 21:29 | 33.93978 | -118.39031 | 117 ft | 15 kts | 83° |
| 2026-04-21 21:29 | 33.93990 | -118.38895 | 115 ft | 16 kts | 83° |
| 2026-04-21 21:30 | 33.94006 | -118.38753 | 114 ft | 17 kts | 84° |
| 2026-04-21 21:30 | 33.94020 | -118.38605 | 112 ft | 18 kts | 83° |
| 2026-04-21 21:30 | 33.94036 | -118.38458 | 110 ft | 18 kts | 82° |
| 2026-04-21 21:30 | 33.94053 | -118.38303 | 110 ft | 18 kts | 84° |
| 2026-04-21 21:31 | 33.94067 | -118.38156 | 110 ft | 17 kts | 82° |
| 2026-04-21 21:31 | 33.94078 | -118.38061 | 110 ft | 0 kts | 81° |
| 2026-04-21 21:31 | 33.94079 | -118.38055 | 110 ft | 1 kts | 81° |
| 2026-04-21 21:31 | 33.94080 | -118.38043 | 110 ft | 1 kts | 89° |
| 2026-04-21 21:32 | 33.94076 | -118.38026 | 110 ft | 3 kts | 112° |
| 2026-04-21 21:32 | 33.94051 | -118.38000 | 110 ft | 6 kts | 164° |
| 2026-04-21 21:32 | 33.93989 | -118.38011 | 110 ft | 11 kts | 233° |
| 2026-04-21 21:32 | 33.93965 | -118.38210 | 110 ft | 52 kts | 263° |
| 2026-04-21 21:33 | 33.93890 | -118.38930 | 116 ft | 117 kts | 263° |
| 2026-04-21 21:33 | 33.93766 | -118.40134 | 124 ft | 171 kts | 262° |
| 2026-04-21 21:33 | 33.93621 | -118.41619 | 588 ft | 177 kts | 262° |
| 2026-04-21 21:33 | 33.93477 | -118.43050 | 1264 ft | 176 kts | 262° |
| 2026-04-21 21:34 | 33.93322 | -118.44502 | 1905 ft | 176 kts | 262° |
| 2026-04-21 21:34 | 33.93166 | -118.45983 | 2236 ft | 185 kts | 261° |
| 2026-04-21 21:34 | 33.92859 | -118.47546 | 2501 ft | 198 kts | 252° |
| 2026-04-21 21:34 | 33.92365 | -118.49139 | 2773 ft | 211 kts | 248° |
| 2026-04-21 21:35 | 33.91781 | -118.50858 | 2989 ft | 230 kts | 248° |
| 2026-04-21 21:35 | 33.91144 | -118.52708 | 3298 ft | 246 kts | 248° |
| 2026-04-21 21:35 | 33.90474 | -118.54647 | 3768 ft | 255 kts | 248° |
| 2026-04-21 21:35 | 33.89800 | -118.56608 | 4445 ft | 256 kts | 248° |
| 2026-04-21 21:36 | 33.89124 | -118.58587 | 5116 ft | 257 kts | 248° |
| 2026-04-21 21:36 | 33.88462 | -118.60545 | 5794 ft | 257 kts | 248° |
| 2026-04-21 21:36 | 33.87800 | -118.62530 | 6444 ft | 259 kts | 248° |
| 2026-04-21 21:36 | 33.87131 | -118.64552 | 7110 ft | 260 kts | 248° |
| 2026-04-21 21:37 | 33.86472 | -118.66556 | 7805 ft | 259 kts | 247° |
| 2026-04-21 21:37 | 33.85822 | -118.68553 | 8510 ft | 258 kts | 247° |
| 2026-04-21 21:37 | 33.85178 | -118.70567 | 9165 ft | 258 kts | 247° |
| 2026-04-21 21:37 | 33.84543 | -118.72575 | 9804 ft | 258 kts | 248° |
| 2026-04-21 21:38 | 33.83906 | -118.74569 | 10380 ft | 260 kts | 247° |
| 2026-04-21 21:38 | 33.83228 | -118.76672 | 10698 ft | 274 kts | 247° |
| 2026-04-21 21:38 | 33.82516 | -118.78851 | 10982 ft | 287 kts | 248° |
| 2026-04-21 21:38 | 33.81765 | -118.81126 | 11229 ft | 300 kts | 247° |
| 2026-04-21 21:39 | 33.80994 | -118.83457 | 11602 ft | 307 kts | 247° |
| 2026-04-21 21:39 | 33.80203 | -118.85843 | 12170 ft | 308 kts | 248° |
| 2026-04-21 21:39 | 33.79400 | -118.88242 | 12693 ft | 310 kts | 247° |
| 2026-04-21 21:39 | 33.78595 | -118.90636 | 12942 ft | 310 kts | 248° |
| 2026-04-21 21:40 | 33.77782 | -118.93037 | 12949 ft | 309 kts | 247° |
| 2026-04-21 21:40 | 33.76979 | -118.95410 | 12958 ft | 308 kts | 247° |
| 2026-04-21 21:40 | 33.76167 | -118.97814 | 12964 ft | 308 kts | 248° |
| 2026-04-21 21:40 | 33.75364 | -119.00175 | 12964 ft | 308 kts | 247° |
| 2026-04-21 21:41 | 33.74460 | -119.02534 | 12954 ft | 311 kts | 238° |
| 2026-04-21 21:41 | 33.72877 | -119.04323 | 13148 ft | 324 kts | 215° |
| 2026-04-21 21:41 | 33.70776 | -119.05338 | 13780 ft | 330 kts | 198° |
| 2026-04-21 21:41 | 33.68456 | -119.05481 | 14314 ft | 343 kts | 179° |
| 2026-04-21 21:42 | 33.66121 | -119.04592 | 14758 ft | 362 kts | 159° |
| 2026-04-21 21:42 | 33.64121 | -119.02616 | 15146 ft | 385 kts | 135° |
| 2026-04-21 21:42 | 33.62875 | -118.99756 | 15532 ft | 404 kts | 110° |
| 2026-04-21 21:42 | 33.62641 | -118.96373 | 15939 ft | 416 kts | 85° |
| 2026-04-21 21:43 | 33.63516 | -118.93063 | 16328 ft | 420 kts | 61° |
| 2026-04-21 21:43 | 33.65161 | -118.90168 | 16751 ft | 420 kts | 50° |
| 2026-04-21 21:43 | 33.67016 | -118.87417 | 17109 ft | 424 kts | 48° |
| 2026-04-21 21:43 | 33.68850 | -118.84673 | 17430 ft | 429 kts | 50° |
| 2026-04-21 21:44 | 33.70678 | -118.81807 | 17788 ft | 433 kts | 51° |
| 2026-04-21 21:44 | 33.72478 | -118.78870 | 18178 ft | 436 kts | 53° |
| 2026-04-21 21:44 | 33.74243 | -118.75915 | 18570 ft | 438 kts | 53° |
| 2026-04-21 21:44 | 33.75996 | -118.72939 | 18933 ft | 441 kts | 53° |
| 2026-04-21 21:45 | 33.77786 | -118.69888 | 19250 ft | 444 kts | 53° |
| 2026-04-21 21:45 | 33.79559 | -118.66853 | 19606 ft | 446 kts | 53° |
| 2026-04-21 21:45 | 33.81337 | -118.63811 | 19940 ft | 450 kts | 53° |
| 2026-04-21 21:45 | 33.83136 | -118.60730 | 20303 ft | 452 kts | 53° |
| 2026-04-21 21:46 | 33.84949 | -118.57622 | 20672 ft | 454 kts | 53° |
| 2026-04-21 21:46 | 33.86768 | -118.54499 | 20995 ft | 457 kts | 53° |
| 2026-04-21 21:46 | 33.88580 | -118.51389 | 21323 ft | 459 kts | 53° |
| 2026-04-21 21:46 | 33.90437 | -118.48200 | 21659 ft | 462 kts | 54° |
| 2026-04-21 21:47 | 33.92262 | -118.45062 | 21957 ft | 465 kts | 53° |
| 2026-04-21 21:47 | 33.94118 | -118.41845 | 22289 ft | 467 kts | 54° |
| 2026-04-21 21:47 | 33.95956 | -118.38605 | 22608 ft | 469 kts | 54° |
| 2026-04-21 21:47 | 33.97802 | -118.35339 | 22927 ft | 471 kts | 54° |
| 2026-04-21 21:48 | 33.99640 | -118.32090 | 23198 ft | 474 kts | 55° |
| 2026-04-21 21:48 | 34.01512 | -118.28778 | 23469 ft | 477 kts | 55° |
| 2026-04-21 21:48 | 34.03379 | -118.25484 | 23751 ft | 479 kts | 55° |
| 2026-04-21 21:48 | 34.05262 | -118.22169 | 24007 ft | 481 kts | 55° |
| 2026-04-21 21:49 | 34.07141 | -118.18854 | 24269 ft | 483 kts | 55° |
| 2026-04-21 21:49 | 34.09059 | -118.15458 | 24520 ft | 486 kts | 55° |
| 2026-04-21 21:49 | 34.10965 | -118.12086 | 24748 ft | 488 kts | 55° |
| 2026-04-21 21:49 | 34.12873 | -118.08704 | 25009 ft | 490 kts | 55° |
| 2026-04-21 21:50 | 34.14785 | -118.05314 | 25237 ft | 492 kts | 55° |
| 2026-04-21 21:50 | 34.16718 | -118.01887 | 25488 ft | 494 kts | 56° |
| 2026-04-21 21:50 | 34.18660 | -117.98434 | 25704 ft | 496 kts | 55° |
| 2026-04-21 21:50 | 34.20581 | -117.95016 | 25913 ft | 498 kts | 55° |
| 2026-04-21 21:51 | 34.22539 | -117.91531 | 26166 ft | 499 kts | 55° |
| 2026-04-21 21:51 | 34.24472 | -117.88089 | 26407 ft | 501 kts | 56° |
| 2026-04-21 21:51 | 34.26440 | -117.84579 | 26636 ft | 503 kts | 56° |
| 2026-04-21 21:51 | 34.28377 | -117.81115 | 26824 ft | 504 kts | 56° |
| 2026-04-21 21:52 | 34.30363 | -117.77563 | 27050 ft | 506 kts | 55° |
| 2026-04-21 21:52 | 34.32323 | -117.74061 | 27266 ft | 508 kts | 56° |
| 2026-04-21 21:52 | 34.34313 | -117.70494 | 27466 ft | 510 kts | 55° |
| 2026-04-21 21:52 | 34.36300 | -117.67002 | 27674 ft | 511 kts | 54° |
| 2026-04-21 21:53 | 34.38386 | -117.63495 | 27863 ft | 513 kts | 53° |
| 2026-04-21 21:53 | 34.40492 | -117.60001 | 28075 ft | 514 kts | 53° |
| 2026-04-21 21:53 | 34.42599 | -117.56508 | 28297 ft | 516 kts | 53° |
| 2026-04-21 21:53 | 34.44710 | -117.52991 | 28492 ft | 517 kts | 53° |
| 2026-04-21 21:54 | 34.46814 | -117.49470 | 28711 ft | 518 kts | 54° |
| 2026-04-21 21:54 | 34.48935 | -117.45914 | 28919 ft | 520 kts | 53° |
| 2026-04-21 21:54 | 34.51025 | -117.42402 | 29093 ft | 522 kts | 54° |
| 2026-04-21 21:54 | 34.53146 | -117.38823 | 29268 ft | 524 kts | 54° |
| 2026-04-21 21:55 | 34.55275 | -117.35236 | 29452 ft | 525 kts | 54° |
| 2026-04-21 21:55 | 34.57407 | -117.31638 | 29636 ft | 527 kts | 54° |
| 2026-04-21 21:55 | 34.59575 | -117.27975 | 29838 ft | 528 kts | 54° |
| 2026-04-21 21:55 | 34.61709 | -117.24365 | 30047 ft | 528 kts | 54° |
| 2026-04-21 21:56 | 34.63838 | -117.20760 | 30280 ft | 527 kts | 55° |
| 2026-04-21 21:56 | 34.65971 | -117.17142 | 30543 ft | 526 kts | 54° |
| 2026-04-21 21:56 | 34.68102 | -117.13524 | 30831 ft | 525 kts | 54° |
| 2026-04-21 21:56 | 34.70217 | -117.09937 | 31089 ft | 524 kts | 54° |
| 2026-04-21 21:57 | 34.72338 | -117.06330 | 31285 ft | 525 kts | 54° |
| 2026-04-21 21:57 | 34.74458 | -117.02722 | 31479 ft | 525 kts | 54° |
| 2026-04-21 21:57 | 34.76588 | -116.99092 | 31679 ft | 526 kts | 54° |
| 2026-04-21 21:57 | 34.78686 | -116.95517 | 31858 ft | 526 kts | 54° |
| 2026-04-21 21:58 | 34.80832 | -116.91857 | 32017 ft | 527 kts | 54° |
| 2026-04-21 21:58 | 34.82951 | -116.88239 | 32199 ft | 528 kts | 54° |
| 2026-04-21 21:58 | 34.85079 | -116.84594 | 32378 ft | 529 kts | 54° |
| 2026-04-21 21:58 | 34.87218 | -116.80935 | 32544 ft | 530 kts | 54° |
| 2026-04-21 21:59 | 34.89326 | -116.77321 | 32704 ft | 530 kts | 54° |
| 2026-04-21 21:59 | 34.91521 | -116.73680 | 32831 ft | 532 kts | 51° |
| 2026-04-21 21:59 | 34.93878 | -116.70223 | 32973 ft | 532 kts | 47° |
| 2026-04-21 22:00 | 34.98903 | -116.63563 | 32999 ft | 533 kts | 45° |
| 2026-04-21 22:00 | 35.03936 | -116.57007 | 32981 ft | 533 kts | 45° |
| 2026-04-21 22:01 | 35.08995 | -116.50361 | 32964 ft | 532 kts | 45° |
| 2026-04-21 22:01 | 35.13975 | -116.43777 | 32958 ft | 532 kts | 45° |
| 2026-04-21 22:02 | 35.19028 | -116.37080 | 32955 ft | 532 kts | 45° |
| 2026-04-21 22:02 | 35.23749 | -116.30815 | 32959 ft | 532 kts | 46° |
| 2026-04-21 22:03 | 35.28753 | -116.24150 | 32968 ft | 532 kts | 47° |
| 2026-04-21 22:03 | 35.33779 | -116.17445 | 32962 ft | 532 kts | 46° |
| 2026-04-21 22:04 | 35.38764 | -116.10788 | 32960 ft | 533 kts | 47° |
| 2026-04-21 22:04 | 35.43755 | -116.04108 | 32960 ft | 533 kts | 47° |
| 2026-04-21 22:05 | 35.48761 | -115.97392 | 32971 ft | 533 kts | 47° |
| 2026-04-21 22:05 | 35.53778 | -115.90646 | 32978 ft | 533 kts | 47° |
| 2026-04-21 22:06 | 35.58750 | -115.83952 | 32978 ft | 533 kts | 47° |
| 2026-04-21 22:06 | 35.63731 | -115.77228 | 32981 ft | 532 kts | 47° |
| 2026-04-21 22:07 | 35.68698 | -115.70416 | 32986 ft | 532 kts | 47° |
| 2026-04-21 22:07 | 35.73611 | -115.63646 | 32992 ft | 532 kts | 47° |
| 2026-04-21 22:08 | 35.78525 | -115.56870 | 32999 ft | 530 kts | 48° |
| 2026-04-21 22:08 | 35.83435 | -115.50085 | 33011 ft | 531 kts | 48° |
| 2026-04-21 22:09 | 35.88354 | -115.43273 | 33012 ft | 530 kts | 48° |
| 2026-04-21 22:09 | 35.93219 | -115.36523 | 33013 ft | 530 kts | 48° |
| 2026-04-21 22:10 | 35.98107 | -115.29731 | 32986 ft | 529 kts | 49° |
| 2026-04-21 22:10 | 36.02987 | -115.22932 | 32961 ft | 530 kts | 49° |
| 2026-04-21 22:11 | 36.07807 | -115.16065 | 32941 ft | 528 kts | 52° |
| 2026-04-21 22:11 | 36.12129 | -115.08721 | 32922 ft | 527 kts | 57° |
| 2026-04-21 22:12 | 36.16274 | -115.01266 | 32920 ft | 527 kts | 57° |
| 2026-04-21 22:12 | 36.20411 | -114.93830 | 32911 ft | 526 kts | 57° |
| 2026-04-21 22:13 | 36.24544 | -114.86423 | 32908 ft | 525 kts | 56° |
| 2026-04-21 22:13 | 36.28688 | -114.78988 | 32919 ft | 526 kts | 57° |
| 2026-04-21 22:14 | 36.32829 | -114.71550 | 32924 ft | 525 kts | 56° |
| 2026-04-21 22:14 | 36.36958 | -114.64117 | 32928 ft | 524 kts | 57° |
| 2026-04-21 22:15 | 36.41091 | -114.56651 | 32925 ft | 524 kts | 57° |
| 2026-04-21 22:15 | 36.45217 | -114.49203 | 32916 ft | 524 kts | 57° |
| 2026-04-21 22:16 | 36.49337 | -114.41730 | 32918 ft | 523 kts | 57° |
| 2026-04-21 22:16 | 36.53435 | -114.34288 | 32909 ft | 523 kts | 57° |
| 2026-04-21 22:17 | 36.57519 | -114.26861 | 32911 ft | 522 kts | 58° |
| 2026-04-21 22:17 | 36.61617 | -114.19379 | 32915 ft | 522 kts | 57° |
| 2026-04-21 22:18 | 36.65695 | -114.11922 | 32934 ft | 522 kts | 57° |
| 2026-04-21 22:18 | 36.69743 | -114.04507 | 32940 ft | 522 kts | 57° |
| 2026-04-21 22:19 | 36.73832 | -113.96999 | 32933 ft | 522 kts | 57° |
| 2026-04-21 22:19 | 36.77884 | -113.89542 | 32958 ft | 520 kts | 57° |
| 2026-04-21 22:20 | 36.81910 | -113.82115 | 32990 ft | 519 kts | 57° |
| 2026-04-21 22:20 | 36.85961 | -113.74628 | 33024 ft | 519 kts | 57° |
| 2026-04-21 22:21 | 36.89981 | -113.67172 | 33038 ft | 518 kts | 57° |
| 2026-04-21 22:21 | 36.93969 | -113.59774 | 33021 ft | 517 kts | 57° |
| 2026-04-21 22:22 | 36.97975 | -113.52320 | 32996 ft | 516 kts | 57° |
| 2026-04-21 22:22 | 37.01957 | -113.44888 | 32984 ft | 514 kts | 57° |
| 2026-04-21 22:23 | 37.05937 | -113.37453 | 33007 ft | 514 kts | 57° |
| 2026-04-21 22:23 | 37.09834 | -113.30150 | 33039 ft | 515 kts | 58° |
| 2026-04-21 22:24 | 37.13762 | -113.22787 | 33059 ft | 513 kts | 58° |
| 2026-04-21 22:24 | 37.17712 | -113.15356 | 33090 ft | 513 kts | 58° |
| 2026-04-21 22:25 | 37.21653 | -113.07913 | 33116 ft | 513 kts | 58° |
| 2026-04-21 22:25 | 37.25483 | -113.00681 | 33134 ft | 512 kts | 58° |
| 2026-04-21 22:26 | 37.29407 | -112.93250 | 33159 ft | 511 kts | 58° |
| 2026-04-21 22:26 | 37.33299 | -112.85862 | 33161 ft | 510 kts | 58° |
| 2026-04-21 22:27 | 37.37200 | -112.78437 | 33169 ft | 510 kts | 57° |
| 2026-04-21 22:27 | 37.41087 | -112.71025 | 33177 ft | 509 kts | 57° |
| 2026-04-21 22:28 | 37.44971 | -112.63603 | 33191 ft | 507 kts | 58° |
| 2026-04-21 22:28 | 37.48831 | -112.56220 | 33198 ft | 507 kts | 58° |
| 2026-04-21 22:29 | 37.52681 | -112.48822 | 33205 ft | 505 kts | 57° |
| 2026-04-21 22:29 | 37.56530 | -112.41421 | 33218 ft | 506 kts | 57° |
| 2026-04-21 22:30 | 37.60308 | -112.34137 | 33223 ft | 505 kts | 58° |
| 2026-04-21 22:30 | 37.64122 | -112.26762 | 33229 ft | 503 kts | 59° |
| 2026-04-21 22:31 | 37.67902 | -112.19308 | 33229 ft | 503 kts | 59° |
| 2026-04-21 22:31 | 37.71630 | -112.11906 | 33235 ft | 502 kts | 59° |
| 2026-04-21 22:32 | 37.75378 | -112.04449 | 33234 ft | 503 kts | 59° |
| 2026-04-21 22:32 | 37.79089 | -111.97063 | 33245 ft | 501 kts | 59° |
| 2026-04-21 22:33 | 37.82816 | -111.89638 | 33270 ft | 500 kts | 59° |
| 2026-04-21 22:33 | 37.86533 | -111.82209 | 33283 ft | 499 kts | 59° |
| 2026-04-21 22:34 | 37.90220 | -111.74821 | 33275 ft | 498 kts | 59° |
| 2026-04-21 22:34 | 37.93898 | -111.67439 | 33279 ft | 496 kts | 59° |
| 2026-04-21 22:35 | 37.97554 | -111.60083 | 33277 ft | 495 kts | 59° |
| 2026-04-21 22:35 | 38.01205 | -111.52724 | 33275 ft | 494 kts | 59° |
| 2026-04-21 22:36 | 38.06641 | -111.41727 | 33259 ft | 493 kts | 59° |
| 2026-04-21 22:36 | 38.10234 | -111.34442 | 33245 ft | 492 kts | 60° |
| 2026-04-21 22:37 | 38.13862 | -111.27066 | 33225 ft | 491 kts | 59° |
| 2026-04-21 22:37 | 38.17456 | -111.19747 | 33209 ft | 492 kts | 60° |
| 2026-04-21 22:38 | 38.21064 | -111.12377 | 33190 ft | 490 kts | 60° |
| 2026-04-21 22:38 | 38.24652 | -111.05038 | 33170 ft | 489 kts | 59° |
| 2026-04-21 22:39 | 38.28222 | -110.97716 | 33149 ft | 489 kts | 60° |
| 2026-04-21 22:39 | 38.31802 | -110.90364 | 33136 ft | 488 kts | 60° |
| 2026-04-21 22:40 | 38.35356 | -110.83039 | 33122 ft | 487 kts | 60° |
| 2026-04-21 22:40 | 38.38911 | -110.75687 | 33095 ft | 488 kts | 60° |
| 2026-04-21 22:41 | 38.42066 | -110.68118 | 33084 ft | 486 kts | 68° |
| 2026-04-21 22:41 | 38.44544 | -110.60152 | 33097 ft | 484 kts | 72° |
| 2026-04-21 22:42 | 38.46849 | -110.52059 | 33119 ft | 484 kts | 72° |
| 2026-04-21 22:42 | 38.49136 | -110.44022 | 33139 ft | 484 kts | 72° |
| 2026-04-21 22:43 | 38.51429 | -110.35979 | 33148 ft | 484 kts | 72° |
| 2026-04-21 22:43 | 38.53699 | -110.28001 | 33148 ft | 483 kts | 73° |
| 2026-04-21 22:44 | 38.55979 | -110.19975 | 33144 ft | 483 kts | 73° |
| 2026-04-21 22:44 | 38.58246 | -110.11968 | 33134 ft | 483 kts | 73° |
| 2026-04-21 22:45 | 38.60516 | -110.03921 | 33126 ft | 483 kts | 73° |
| 2026-04-21 22:45 | 38.62785 | -109.95858 | 33118 ft | 483 kts | 73° |
| 2026-04-21 22:46 | 38.65052 | -109.87782 | 33101 ft | 483 kts | 73° |
| 2026-04-21 22:46 | 38.67303 | -109.79734 | 33086 ft | 483 kts | 72° |
| 2026-04-21 22:47 | 38.69557 | -109.71660 | 33082 ft | 482 kts | 73° |
| 2026-04-21 22:47 | 38.71804 | -109.63575 | 33082 ft | 482 kts | 73° |
| 2026-04-21 22:48 | 38.74030 | -109.55544 | 33101 ft | 481 kts | 73° |
| 2026-04-21 22:48 | 38.76253 | -109.47491 | 33119 ft | 482 kts | 72° |
| 2026-04-21 22:49 | 38.78479 | -109.39413 | 33146 ft | 483 kts | 72° |
| 2026-04-21 22:49 | 38.80651 | -109.31500 | 33159 ft | 483 kts | 73° |
| 2026-04-21 22:50 | 38.82871 | -109.23392 | 33166 ft | 483 kts | 73° |
| 2026-04-21 22:50 | 38.85088 | -109.15260 | 33172 ft | 482 kts | 73° |
| 2026-04-21 22:51 | 38.87281 | -109.07201 | 33179 ft | 481 kts | 73° |
| 2026-04-21 22:51 | 38.89482 | -108.99081 | 33184 ft | 481 kts | 73° |
| 2026-04-21 22:52 | 38.91674 | -108.90973 | 33204 ft | 481 kts | 73° |
| 2026-04-21 22:52 | 38.93846 | -108.82912 | 33212 ft | 481 kts | 73° |
| 2026-04-21 22:53 | 38.96035 | -108.74762 | 33217 ft | 482 kts | 73° |
| 2026-04-21 22:53 | 38.98212 | -108.66635 | 33202 ft | 483 kts | 73° |
| 2026-04-21 22:54 | 39.00388 | -108.58478 | 33179 ft | 483 kts | 73° |
| 2026-04-21 22:54 | 39.02553 | -108.50338 | 33156 ft | 484 kts | 73° |
| 2026-04-21 22:55 | 39.04713 | -108.42187 | 33156 ft | 483 kts | 73° |
| 2026-04-21 22:55 | 39.06815 | -108.34235 | 33192 ft | 482 kts | 73° |
| 2026-04-21 22:56 | 39.08963 | -108.26083 | 33222 ft | 483 kts | 73° |
| 2026-04-21 22:56 | 39.11045 | -108.18153 | 33268 ft | 483 kts | 73° |
| 2026-04-21 22:57 | 39.13194 | -108.09946 | 33305 ft | 483 kts | 73° |
| 2026-04-21 22:57 | 39.15315 | -108.01817 | 33335 ft | 483 kts | 73° |
| 2026-04-21 22:58 | 39.17443 | -107.93636 | 33351 ft | 482 kts | 73° |
| 2026-04-21 22:58 | 39.19558 | -107.85471 | 33373 ft | 482 kts | 73° |
| 2026-04-21 22:59 | 39.21677 | -107.77269 | 33380 ft | 481 kts | 73° |
| 2026-04-21 22:59 | 39.23768 | -107.69143 | 33395 ft | 481 kts | 73° |
| 2026-04-21 23:00 | 39.25869 | -107.60960 | 33402 ft | 481 kts | 73° |
| 2026-04-21 23:00 | 39.27959 | -107.52795 | 33408 ft | 481 kts | 73° |
| 2026-04-21 23:01 | 39.30042 | -107.44622 | 33418 ft | 481 kts | 73° |
| 2026-04-21 23:01 | 39.32120 | -107.36445 | 33419 ft | 481 kts | 73° |
| 2026-04-21 23:02 | 39.34129 | -107.28511 | 33428 ft | 480 kts | 73° |
| 2026-04-21 23:02 | 39.36191 | -107.20348 | 33419 ft | 479 kts | 73° |
| 2026-04-21 23:03 | 39.38245 | -107.12183 | 33411 ft | 479 kts | 73° |
| 2026-04-21 23:03 | 39.40300 | -107.03990 | 33390 ft | 478 kts | 73° |
| 2026-04-21 23:04 | 39.42337 | -106.95845 | 33373 ft | 478 kts | 73° |
| 2026-04-21 23:04 | 39.44435 | -106.87721 | 33367 ft | 477 kts | 71° |
| 2026-04-21 23:05 | 39.46762 | -106.79758 | 33360 ft | 477 kts | 70° |
| 2026-04-21 23:05 | 39.49117 | -106.71761 | 33361 ft | 478 kts | 70° |
| 2026-04-21 23:06 | 39.50302 | -106.67726 | 33517 ft | 478 kts | 70° |
| 2026-04-21 23:06 | 39.51479 | -106.63705 | 33752 ft | 477 kts | 70° |
| 2026-04-21 23:06 | 39.52646 | -106.59711 | 34028 ft | 475 kts | 70° |
| 2026-04-21 23:06 | 39.53802 | -106.55749 | 34303 ft | 474 kts | 70° |
| 2026-04-21 23:07 | 39.54965 | -106.51758 | 34541 ft | 473 kts | 70° |
| 2026-04-21 23:07 | 39.56129 | -106.47754 | 34776 ft | 472 kts | 70° |
| 2026-04-21 23:07 | 39.57266 | -106.43831 | 35022 ft | 471 kts | 70° |
| 2026-04-21 23:07 | 39.58411 | -106.39880 | 35257 ft | 470 kts | 71° |
| 2026-04-21 23:08 | 39.59551 | -106.35938 | 35424 ft | 470 kts | 71° |
| 2026-04-21 23:08 | 39.60655 | -106.32117 | 35424 ft | 469 kts | 71° |
| 2026-04-21 23:08 | 39.62928 | -106.24220 | 35425 ft | 468 kts | 71° |
| 2026-04-21 23:09 | 39.65049 | -106.16835 | 35420 ft | 469 kts | 71° |
| 2026-04-21 23:09 | 39.67317 | -106.08924 | 35422 ft | 469 kts | 71° |
| 2026-04-21 23:10 | 39.69565 | -106.01052 | 35417 ft | 468 kts | 71° |
| 2026-04-21 23:10 | 39.71816 | -105.93143 | 35414 ft | 468 kts | 71° |
| 2026-04-21 23:11 | 39.74072 | -105.85199 | 35415 ft | 468 kts | 71° |
| 2026-04-21 23:11 | 39.76300 | -105.77324 | 35410 ft | 467 kts | 71° |
| 2026-04-21 23:12 | 39.78527 | -105.69429 | 35387 ft | 467 kts | 71° |
| 2026-04-21 23:12 | 39.80763 | -105.61481 | 35368 ft | 467 kts | 71° |
| 2026-04-21 23:13 | 39.82973 | -105.53602 | 35338 ft | 467 kts | 71° |
| 2026-04-21 23:13 | 39.85196 | -105.45652 | 35294 ft | 468 kts | 71° |
| 2026-04-21 23:14 | 39.87400 | -105.37745 | 35234 ft | 468 kts | 71° |
| 2026-04-21 23:14 | 39.89610 | -105.29791 | 35146 ft | 468 kts | 72° |
| 2026-04-21 23:15 | 39.91819 | -105.21820 | 35101 ft | 467 kts | 72° |
| 2026-04-21 23:15 | 39.94005 | -105.13903 | 35073 ft | 467 kts | 72° |
| 2026-04-21 23:16 | 39.96187 | -105.05974 | 35065 ft | 467 kts | 72° |
| 2026-04-21 23:16 | 39.98381 | -104.97976 | 35059 ft | 468 kts | 72° |
| 2026-04-21 23:17 | 40.00554 | -104.90033 | 35056 ft | 468 kts | 71° |
| 2026-04-21 23:17 | 40.02738 | -104.82020 | 35057 ft | 468 kts | 71° |
| 2026-04-21 23:18 | 40.04898 | -104.74071 | 35065 ft | 468 kts | 71° |
| 2026-04-21 23:18 | 40.07061 | -104.66094 | 35078 ft | 467 kts | 71° |
| 2026-04-21 23:19 | 40.09208 | -104.58149 | 35091 ft | 467 kts | 71° |
| 2026-04-21 23:19 | 40.11323 | -104.50295 | 35094 ft | 467 kts | 71° |
| 2026-04-21 23:20 | 40.13467 | -104.42310 | 35103 ft | 467 kts | 71° |
| 2026-04-21 23:20 | 40.15579 | -104.34415 | 35106 ft | 467 kts | 72° |
| 2026-04-21 23:21 | 40.17719 | -104.26389 | 35099 ft | 466 kts | 72° |
| 2026-04-21 23:21 | 40.19828 | -104.18455 | 35092 ft | 466 kts | 71° |
| 2026-04-21 23:22 | 40.21957 | -104.10420 | 35088 ft | 467 kts | 71° |
| 2026-04-21 23:22 | 40.24063 | -104.02451 | 35084 ft | 467 kts | 71° |
| 2026-04-21 23:23 | 40.26178 | -103.94427 | 35069 ft | 467 kts | 72° |
| 2026-04-21 23:23 | 40.28273 | -103.86440 | 35058 ft | 467 kts | 71° |
| 2026-04-21 23:24 | 40.30375 | -103.78401 | 35048 ft | 466 kts | 71° |
| 2026-04-21 23:24 | 40.32458 | -103.70412 | 35047 ft | 466 kts | 71° |
| 2026-04-21 23:25 | 40.34550 | -103.62365 | 35053 ft | 466 kts | 71° |
| 2026-04-21 23:25 | 40.36616 | -103.54388 | 35067 ft | 466 kts | 71° |
| 2026-04-21 23:26 | 40.38694 | -103.46339 | 35077 ft | 466 kts | 71° |
| 2026-04-21 23:26 | 40.40755 | -103.38334 | 35079 ft | 466 kts | 71° |
| 2026-04-21 23:27 | 40.42790 | -103.30401 | 35070 ft | 466 kts | 72° |
| 2026-04-21 23:27 | 40.44848 | -103.22352 | 35065 ft | 466 kts | 72° |
| 2026-04-21 23:28 | 40.46897 | -103.14307 | 35067 ft | 465 kts | 71° |
| 2026-04-21 23:28 | 40.48937 | -103.06278 | 35067 ft | 465 kts | 71° |
| 2026-04-21 23:29 | 40.50969 | -102.98254 | 35070 ft | 466 kts | 71° |
| 2026-04-21 23:29 | 40.53003 | -102.90192 | 35072 ft | 466 kts | 71° |
| 2026-04-21 23:30 | 40.55030 | -102.82127 | 35071 ft | 465 kts | 71° |
| 2026-04-21 23:30 | 40.57046 | -102.74085 | 35071 ft | 465 kts | 71° |
| 2026-04-21 23:31 | 40.59061 | -102.66013 | 35063 ft | 465 kts | 71° |
| 2026-04-21 23:31 | 40.61059 | -102.57985 | 35060 ft | 465 kts | 71° |
| 2026-04-21 23:32 | 40.63068 | -102.49888 | 35052 ft | 465 kts | 71° |
| 2026-04-21 23:32 | 40.65052 | -102.41861 | 35051 ft | 465 kts | 71° |
| 2026-04-21 23:33 | 40.67049 | -102.33759 | 35043 ft | 465 kts | 72° |
| 2026-04-21 23:33 | 40.69031 | -102.25683 | 35040 ft | 465 kts | 72° |
| 2026-04-21 23:34 | 40.71006 | -102.17610 | 35028 ft | 464 kts | 72° |
| 2026-04-21 23:34 | 40.72974 | -102.09541 | 35017 ft | 464 kts | 72° |
| 2026-04-21 23:35 | 40.74932 | -102.01482 | 35010 ft | 464 kts | 72° |
| 2026-04-21 23:35 | 40.76902 | -101.93349 | 35003 ft | 464 kts | 72° |
| 2026-04-21 23:36 | 40.78840 | -101.85320 | 34998 ft | 464 kts | 72° |
| 2026-04-21 23:36 | 40.80792 | -101.77204 | 34989 ft | 464 kts | 71° |
| 2026-04-21 23:37 | 40.82732 | -101.69109 | 34992 ft | 464 kts | 71° |
| 2026-04-21 23:37 | 40.84660 | -101.61030 | 34988 ft | 464 kts | 71° |
| 2026-04-21 23:38 | 40.86588 | -101.52930 | 34984 ft | 464 kts | 71° |
| 2026-04-21 23:38 | 40.88512 | -101.44815 | 34980 ft | 464 kts | 71° |
| 2026-04-21 23:39 | 40.90429 | -101.36708 | 34981 ft | 463 kts | 71° |
| 2026-04-21 23:39 | 40.92340 | -101.28592 | 34982 ft | 463 kts | 72° |
| 2026-04-21 23:40 | 40.94248 | -101.20458 | 34973 ft | 463 kts | 72° |
| 2026-04-21 23:40 | 40.96135 | -101.12388 | 34973 ft | 463 kts | 72° |
| 2026-04-21 23:41 | 40.98027 | -101.04264 | 34970 ft | 464 kts | 71° |
| 2026-04-21 23:41 | 40.99918 | -100.96127 | 34977 ft | 464 kts | 71° |
| 2026-04-21 23:42 | 41.01809 | -100.87965 | 34979 ft | 464 kts | 71° |
| 2026-04-21 23:42 | 41.03683 | -100.79830 | 34973 ft | 464 kts | 71° |
| 2026-04-21 23:43 | 41.05661 | -100.71763 | 34970 ft | 462 kts | 69° |
| 2026-04-21 23:43 | 41.07861 | -100.63757 | 34967 ft | 462 kts | 68° |
| 2026-04-21 23:44 | 41.10049 | -100.55823 | 34965 ft | 462 kts | 68° |
| 2026-04-21 23:44 | 41.12252 | -100.47800 | 34965 ft | 463 kts | 68° |
| 2026-04-21 23:45 | 41.15522 | -100.35824 | 34972 ft | 463 kts | 68° |
| 2026-04-21 23:46 | 41.17706 | -100.27791 | 34977 ft | 463 kts | 68° |
| 2026-04-21 23:46 | 41.19878 | -100.19776 | 34978 ft | 463 kts | 68° |
| 2026-04-21 23:47 | 41.22040 | -100.11769 | 34977 ft | 462 kts | 68° |
| 2026-04-21 23:47 | 41.24200 | -100.03747 | 34975 ft | 462 kts | 68° |
| 2026-04-21 23:48 | 41.26341 | -99.95768 | 34973 ft | 461 kts | 68° |
| 2026-04-21 23:48 | 41.28486 | -99.87753 | 34969 ft | 462 kts | 68° |
| 2026-04-21 23:49 | 41.30638 | -99.79684 | 34962 ft | 463 kts | 68° |
| 2026-04-21 23:49 | 41.32781 | -99.71616 | 34957 ft | 463 kts | 68° |
| 2026-04-21 23:50 | 41.34903 | -99.63605 | 34956 ft | 462 kts | 68° |
| 2026-04-21 23:50 | 41.37034 | -99.55530 | 34959 ft | 462 kts | 68° |
| 2026-04-21 23:51 | 41.39144 | -99.47512 | 34958 ft | 462 kts | 68° |
| 2026-04-21 23:51 | 41.41260 | -99.39451 | 34958 ft | 462 kts | 68° |
| 2026-04-21 23:52 | 41.43368 | -99.31386 | 34960 ft | 463 kts | 68° |
| 2026-04-21 23:52 | 41.45477 | -99.23290 | 34960 ft | 463 kts | 68° |
| 2026-04-21 23:53 | 41.47566 | -99.15244 | 34956 ft | 463 kts | 68° |
| 2026-04-21 23:53 | 41.49670 | -99.07112 | 34952 ft | 463 kts | 68° |
| 2026-04-21 23:54 | 41.51746 | -98.99065 | 34950 ft | 463 kts | 68° |
| 2026-04-21 23:54 | 41.53834 | -98.90942 | 34953 ft | 463 kts | 68° |
| 2026-04-21 23:55 | 41.55899 | -98.82883 | 34950 ft | 462 kts | 68° |
| 2026-04-21 23:55 | 41.57971 | -98.74768 | 34949 ft | 463 kts | 68° |
| 2026-04-21 23:56 | 41.60042 | -98.66628 | 34951 ft | 463 kts | 68° |
| 2026-04-21 23:56 | 41.62089 | -98.58556 | 34954 ft | 463 kts | 68° |
| 2026-04-21 23:57 | 41.64153 | -98.50392 | 34958 ft | 463 kts | 68° |
| 2026-04-21 23:57 | 41.66195 | -98.42284 | 34957 ft | 462 kts | 68° |
| 2026-04-21 23:58 | 41.68240 | -98.34140 | 34959 ft | 462 kts | 68° |
| 2026-04-21 23:58 | 41.70275 | -98.26007 | 34962 ft | 463 kts | 68° |
| 2026-04-21 23:59 | 41.72299 | -98.17883 | 34961 ft | 462 kts | 68° |
| 2026-04-21 23:59 | 41.74318 | -98.09753 | 34966 ft | 462 kts | 68° |
| 2026-04-22 00:00 | 41.76335 | -98.01600 | 34968 ft | 462 kts | 68° |
| 2026-04-22 00:00 | 41.78336 | -97.93495 | 34953 ft | 462 kts | 68° |
| 2026-04-22 00:01 | 41.80344 | -97.85335 | 34953 ft | 462 kts | 68° |
| 2026-04-22 00:01 | 41.82346 | -97.77160 | 34950 ft | 462 kts | 68° |
| 2026-04-22 00:02 | 41.84334 | -97.69008 | 34952 ft | 462 kts | 68° |
| 2026-04-22 00:02 | 41.86312 | -97.60880 | 34953 ft | 462 kts | 68° |
| 2026-04-22 00:03 | 41.88300 | -97.52679 | 34953 ft | 463 kts | 67° |
| 2026-04-22 00:03 | 41.90279 | -97.44487 | 34958 ft | 463 kts | 67° |
| 2026-04-22 00:04 | 41.92249 | -97.36303 | 34964 ft | 463 kts | 67° |
| 2026-04-22 00:04 | 41.94226 | -97.28060 | 34960 ft | 464 kts | 68° |
| 2026-04-22 00:05 | 41.96181 | -97.19877 | 34962 ft | 463 kts | 68° |
| 2026-04-22 00:05 | 41.98137 | -97.11665 | 34960 ft | 463 kts | 68° |
| 2026-04-22 00:06 | 42.00085 | -97.03453 | 34959 ft | 463 kts | 68° |
| 2026-04-22 00:06 | 42.02036 | -96.95194 | 34952 ft | 462 kts | 67° |
| 2026-04-22 00:07 | 42.03962 | -96.87017 | 34946 ft | 461 kts | 67° |
| 2026-04-22 00:07 | 42.05894 | -96.78786 | 34945 ft | 461 kts | 67° |
| 2026-04-22 00:08 | 42.07811 | -96.70591 | 34952 ft | 462 kts | 67° |
| 2026-04-22 00:08 | 42.09723 | -96.62385 | 34953 ft | 462 kts | 67° |
| 2026-04-22 00:09 | 42.11625 | -96.54182 | 34950 ft | 460 kts | 67° |
| 2026-04-22 00:09 | 42.13517 | -96.46004 | 34943 ft | 460 kts | 67° |
| 2026-04-22 00:10 | 42.15413 | -96.37778 | 34940 ft | 461 kts | 67° |
| 2026-04-22 00:10 | 42.17304 | -96.29546 | 34936 ft | 461 kts | 68° |
| 2026-04-22 00:11 | 42.19190 | -96.21300 | 34936 ft | 461 kts | 68° |
| 2026-04-22 00:11 | 42.21056 | -96.13103 | 34937 ft | 460 kts | 67° |
| 2026-04-22 00:12 | 42.22932 | -96.04837 | 34940 ft | 460 kts | 67° |
| 2026-04-22 00:12 | 42.24746 | -95.96820 | 34944 ft | 460 kts | 67° |
| 2026-04-22 00:13 | 42.26605 | -95.88577 | 34951 ft | 460 kts | 67° |
| 2026-04-22 00:13 | 42.28450 | -95.80351 | 34952 ft | 459 kts | 67° |
| 2026-04-22 00:14 | 42.30288 | -95.72129 | 34954 ft | 459 kts | 67° |
| 2026-04-22 00:14 | 42.32129 | -95.63875 | 34950 ft | 459 kts | 67° |
| 2026-04-22 00:15 | 42.33949 | -95.55677 | 34952 ft | 458 kts | 67° |
| 2026-04-22 00:15 | 42.35770 | -95.47439 | 34957 ft | 457 kts | 67° |
| 2026-04-22 00:16 | 42.37579 | -95.39227 | 34963 ft | 458 kts | 67° |
| 2026-04-22 00:16 | 42.39397 | -95.30943 | 34963 ft | 458 kts | 68° |
| 2026-04-22 00:17 | 42.41189 | -95.22739 | 34961 ft | 458 kts | 67° |
| 2026-04-22 00:17 | 42.42992 | -95.14462 | 34964 ft | 458 kts | 67° |
| 2026-04-22 00:18 | 42.44778 | -95.06226 | 34966 ft | 458 kts | 67° |
| 2026-04-22 00:18 | 42.46560 | -94.97978 | 34963 ft | 458 kts | 67° |
| 2026-04-22 00:19 | 42.48341 | -94.89703 | 34960 ft | 458 kts | 67° |
| 2026-04-22 00:19 | 42.50106 | -94.81470 | 34959 ft | 457 kts | 67° |
| 2026-04-22 00:20 | 42.51873 | -94.73209 | 34958 ft | 458 kts | 67° |
| 2026-04-22 00:20 | 42.53624 | -94.64982 | 34958 ft | 458 kts | 67° |
| 2026-04-22 00:21 | 42.55378 | -94.56705 | 34956 ft | 457 kts | 67° |
| 2026-04-22 00:21 | 42.57120 | -94.48462 | 34956 ft | 457 kts | 67° |
| 2026-04-22 00:22 | 42.58855 | -94.40173 | 34952 ft | 458 kts | 68° |
| 2026-04-22 00:22 | 42.60157 | -94.31700 | 34948 ft | 464 kts | 75° |
| 2026-04-22 00:23 | 42.60751 | -94.22892 | 34949 ft | 472 kts | 82° |
| 2026-04-22 00:23 | 42.60639 | -94.14037 | 34949 ft | 475 kts | 86° |
| 2026-04-22 00:24 | 42.60338 | -94.05082 | 34948 ft | 475 kts | 86° |
| 2026-04-22 00:24 | 42.60039 | -93.96192 | 34950 ft | 475 kts | 86° |
| 2026-04-22 00:25 | 42.59743 | -93.87280 | 34948 ft | 474 kts | 86° |
| 2026-04-22 00:25 | 42.59445 | -93.78331 | 34952 ft | 474 kts | 86° |
| 2026-04-22 00:26 | 42.59143 | -93.69484 | 34949 ft | 473 kts | 86° |
| 2026-04-22 00:26 | 42.58836 | -93.60600 | 34953 ft | 473 kts | 86° |
| 2026-04-22 00:27 | 42.58522 | -93.51743 | 34950 ft | 473 kts | 86° |
| 2026-04-22 00:27 | 42.58199 | -93.42832 | 34953 ft | 474 kts | 86° |
| 2026-04-22 00:28 | 42.57870 | -93.33950 | 34953 ft | 473 kts | 86° |
| 2026-04-22 00:28 | 42.57534 | -93.25073 | 34957 ft | 474 kts | 86° |
| 2026-04-22 00:29 | 42.57189 | -93.16161 | 34957 ft | 473 kts | 86° |
| 2026-04-22 00:29 | 42.56839 | -93.07308 | 34952 ft | 472 kts | 86° |
| 2026-04-22 00:30 | 42.56483 | -92.98406 | 34948 ft | 472 kts | 86° |
| 2026-04-22 00:30 | 42.56118 | -92.89525 | 34942 ft | 473 kts | 86° |
| 2026-04-22 00:31 | 42.55748 | -92.80657 | 34942 ft | 472 kts | 86° |
| 2026-04-22 00:31 | 42.55374 | -92.71854 | 34939 ft | 473 kts | 86° |
| 2026-04-22 00:32 | 42.54990 | -92.62986 | 34939 ft | 473 kts | 86° |
| 2026-04-22 00:32 | 42.54600 | -92.54100 | 34939 ft | 472 kts | 86° |
| 2026-04-22 00:33 | 42.54204 | -92.45261 | 34938 ft | 472 kts | 86° |
| 2026-04-22 00:33 | 42.53803 | -92.36416 | 34938 ft | 473 kts | 86° |
| 2026-04-22 00:34 | 42.53390 | -92.27486 | 34936 ft | 473 kts | 86° |
| 2026-04-22 00:34 | 42.52976 | -92.18632 | 34939 ft | 471 kts | 86° |
| 2026-04-22 00:35 | 42.52553 | -92.09801 | 34938 ft | 471 kts | 86° |
| 2026-04-22 00:35 | 42.52385 | -92.00983 | 34944 ft | 468 kts | 82° |
| 2026-04-22 00:36 | 42.52446 | -91.92244 | 34947 ft | 467 kts | 82° |
| 2026-04-22 00:36 | 42.52509 | -91.83470 | 34949 ft | 467 kts | 81° |
| 2026-04-22 00:37 | 42.52562 | -91.74662 | 34949 ft | 467 kts | 82° |
| 2026-04-22 00:37 | 42.52606 | -91.65912 | 34946 ft | 467 kts | 82° |
| 2026-04-22 00:38 | 42.52643 | -91.57153 | 34942 ft | 465 kts | 82° |
| 2026-04-22 00:38 | 42.52672 | -91.48430 | 34941 ft | 464 kts | 81° |
| 2026-04-22 00:39 | 42.52692 | -91.39703 | 34942 ft | 465 kts | 82° |
| 2026-04-22 00:39 | 42.52695 | -91.30939 | 34943 ft | 465 kts | 82° |
| 2026-04-22 00:40 | 42.52696 | -91.22226 | 34944 ft | 466 kts | 82° |
| 2026-04-22 00:40 | 42.52691 | -91.13447 | 34944 ft | 466 kts | 82° |
| 2026-04-22 00:41 | 42.52680 | -91.04700 | 34949 ft | 465 kts | 82° |
| 2026-04-22 00:41 | 42.52667 | -90.95982 | 34953 ft | 464 kts | 82° |
| 2026-04-22 00:42 | 42.52645 | -90.87238 | 34954 ft | 463 kts | 82° |
| 2026-04-22 00:42 | 42.52610 | -90.78587 | 34857 ft | 464 kts | 82° |
| 2026-04-22 00:42 | 42.52585 | -90.74199 | 34571 ft | 462 kts | 82° |
| 2026-04-22 00:43 | 42.52557 | -90.69886 | 34295 ft | 459 kts | 82° |
| 2026-04-22 00:43 | 42.52528 | -90.65569 | 34017 ft | 456 kts | 82° |
| 2026-04-22 00:43 | 42.52501 | -90.61332 | 33759 ft | 454 kts | 82° |
| 2026-04-22 00:43 | 42.52475 | -90.57030 | 33510 ft | 454 kts | 82° |
| 2026-04-22 00:44 | 42.52448 | -90.52792 | 33176 ft | 456 kts | 83° |
| 2026-04-22 00:44 | 42.52420 | -90.48473 | 32688 ft | 458 kts | 83° |
| 2026-04-22 00:44 | 42.52393 | -90.44195 | 32064 ft | 459 kts | 84° |
| 2026-04-22 00:44 | 42.52361 | -90.39899 | 31351 ft | 462 kts | 84° |
| 2026-04-22 00:45 | 42.52325 | -90.35546 | 30618 ft | 465 kts | 85° |
| 2026-04-22 00:45 | 42.52288 | -90.31163 | 29860 ft | 469 kts | 86° |
| 2026-04-22 00:45 | 42.52254 | -90.26757 | 29252 ft | 467 kts | 86° |
| 2026-04-22 00:45 | 42.52220 | -90.22423 | 28748 ft | 463 kts | 86° |
| 2026-04-22 00:46 | 42.52187 | -90.18068 | 28250 ft | 459 kts | 86° |
| 2026-04-22 00:46 | 42.52152 | -90.13809 | 27773 ft | 456 kts | 86° |
| 2026-04-22 00:46 | 42.52120 | -90.09550 | 27299 ft | 452 kts | 87° |
| 2026-04-22 00:46 | 42.52086 | -90.05326 | 26827 ft | 448 kts | 87° |
| 2026-04-22 00:47 | 42.52052 | -90.01128 | 26345 ft | 444 kts | 87° |
| 2026-04-22 00:47 | 42.52016 | -89.96955 | 25875 ft | 441 kts | 87° |
| 2026-04-22 00:47 | 42.51980 | -89.92837 | 25410 ft | 437 kts | 87° |
| 2026-04-22 00:47 | 42.51942 | -89.88773 | 24950 ft | 434 kts | 87° |
| 2026-04-22 00:48 | 42.51902 | -89.84694 | 24465 ft | 431 kts | 87° |
| 2026-04-22 00:48 | 42.51843 | -89.80691 | 24042 ft | 427 kts | 89° |
| 2026-04-22 00:48 | 42.51630 | -89.76683 | 23937 ft | 422 kts | 92° |
| 2026-04-22 00:48 | 42.51251 | -89.72783 | 23372 ft | 426 kts | 96° |
| 2026-04-22 00:49 | 42.50774 | -89.68816 | 22764 ft | 427 kts | 97° |
| 2026-04-22 00:49 | 42.50282 | -89.64870 | 22220 ft | 427 kts | 97° |
| 2026-04-22 00:49 | 42.49790 | -89.60920 | 21698 ft | 425 kts | 97° |
| 2026-04-22 00:49 | 42.49302 | -89.56971 | 21198 ft | 423 kts | 97° |
| 2026-04-22 00:50 | 42.48825 | -89.53095 | 20749 ft | 420 kts | 97° |
| 2026-04-22 00:50 | 42.48343 | -89.49187 | 20268 ft | 418 kts | 97° |
| 2026-04-22 00:50 | 42.47870 | -89.45356 | 19819 ft | 415 kts | 97° |
| 2026-04-22 00:50 | 42.47400 | -89.41550 | 19320 ft | 411 kts | 97° |
| 2026-04-22 00:51 | 42.46930 | -89.37757 | 18885 ft | 407 kts | 97° |
| 2026-04-22 00:51 | 42.46469 | -89.34010 | 18432 ft | 403 kts | 97° |
| 2026-04-22 00:51 | 42.46009 | -89.30268 | 18023 ft | 400 kts | 97° |
| 2026-04-22 00:51 | 42.45559 | -89.26592 | 17559 ft | 397 kts | 97° |
| 2026-04-22 00:52 | 42.45110 | -89.22939 | 17081 ft | 394 kts | 97° |
| 2026-04-22 00:52 | 42.44656 | -89.19286 | 16629 ft | 391 kts | 97° |
| 2026-04-22 00:52 | 42.44209 | -89.15689 | 16216 ft | 387 kts | 97° |
| 2026-04-22 00:52 | 42.43768 | -89.12142 | 15792 ft | 384 kts | 97° |
| 2026-04-22 00:53 | 42.43320 | -89.08601 | 15356 ft | 381 kts | 97° |
| 2026-04-22 00:53 | 42.42867 | -89.05076 | 14929 ft | 378 kts | 97° |
| 2026-04-22 00:53 | 42.42427 | -89.01600 | 14504 ft | 376 kts | 97° |
| 2026-04-22 00:53 | 42.41994 | -88.98138 | 14081 ft | 373 kts | 97° |
| 2026-04-22 00:54 | 42.41566 | -88.94723 | 13694 ft | 370 kts | 97° |
| 2026-04-22 00:54 | 42.41140 | -88.91337 | 13408 ft | 363 kts | 97° |
| 2026-04-22 00:54 | 42.40715 | -88.87993 | 13128 ft | 356 kts | 97° |
| 2026-04-22 00:54 | 42.40294 | -88.84695 | 12713 ft | 356 kts | 97° |
| 2026-04-22 00:55 | 42.39873 | -88.81411 | 12259 ft | 354 kts | 97° |
| 2026-04-22 00:55 | 42.39456 | -88.78164 | 11887 ft | 352 kts | 97° |
| 2026-04-22 00:55 | 42.38622 | -88.71696 | 11163 ft | 345 kts | 97° |
| 2026-04-22 00:56 | 42.38214 | -88.68554 | 11014 ft | 333 kts | 97° |
| 2026-04-22 00:56 | 42.37823 | -88.65548 | 11005 ft | 319 kts | 97° |
| 2026-04-22 00:56 | 42.37440 | -88.62605 | 11006 ft | 318 kts | 97° |
| 2026-04-22 00:56 | 42.37059 | -88.59682 | 11004 ft | 318 kts | 97° |
| 2026-04-22 00:57 | 42.36676 | -88.56752 | 11002 ft | 318 kts | 97° |
| 2026-04-22 00:57 | 42.36291 | -88.53803 | 11000 ft | 318 kts | 97° |
| 2026-04-22 00:57 | 42.35905 | -88.50864 | 10999 ft | 319 kts | 97° |
| 2026-04-22 00:57 | 42.35518 | -88.47920 | 10997 ft | 318 kts | 97° |
| 2026-04-22 00:58 | 42.35134 | -88.45003 | 10995 ft | 318 kts | 97° |
| 2026-04-22 00:58 | 42.34743 | -88.42049 | 10993 ft | 318 kts | 98° |
| 2026-04-22 00:58 | 42.34105 | -88.39198 | 10989 ft | 320 kts | 113° |
| 2026-04-22 00:58 | 42.32961 | -88.36589 | 10997 ft | 322 kts | 124° |
| 2026-04-22 00:59 | 42.31651 | -88.34164 | 10994 ft | 322 kts | 127° |
| 2026-04-22 00:59 | 42.30302 | -88.31746 | 10992 ft | 322 kts | 129° |
| 2026-04-22 00:59 | 42.28871 | -88.29421 | 10991 ft | 321 kts | 131° |
| 2026-04-22 00:59 | 42.27425 | -88.27146 | 10994 ft | 322 kts | 131° |
| 2026-04-22 01:00 | 42.25959 | -88.24839 | 10991 ft | 321 kts | 131° |
| 2026-04-22 01:00 | 42.24512 | -88.22551 | 10981 ft | 321 kts | 131° |
| 2026-04-22 01:00 | 42.23072 | -88.20270 | 10905 ft | 320 kts | 131° |
| 2026-04-22 01:00 | 42.21630 | -88.17982 | 10929 ft | 321 kts | 131° |
| 2026-04-22 01:01 | 42.20142 | -88.15749 | 10947 ft | 320 kts | 139° |
| 2026-04-22 01:01 | 42.18304 | -88.14056 | 10973 ft | 318 kts | 157° |
| 2026-04-22 01:01 | 42.16281 | -88.12936 | 10994 ft | 316 kts | 162° |
| 2026-04-22 01:01 | 42.14203 | -88.11915 | 11005 ft | 317 kts | 163° |
| 2026-04-22 01:02 | 42.12149 | -88.10915 | 11008 ft | 317 kts | 163° |
| 2026-04-22 01:02 | 42.10053 | -88.09879 | 11013 ft | 317 kts | 163° |
| 2026-04-22 01:02 | 42.08005 | -88.08851 | 11014 ft | 317 kts | 162° |
| 2026-04-22 01:02 | 42.05923 | -88.07796 | 11015 ft | 317 kts | 162° |
| 2026-04-22 01:03 | 42.03880 | -88.06755 | 11016 ft | 317 kts | 162° |
| 2026-04-22 01:03 | 42.01787 | -88.05687 | 11018 ft | 318 kts | 162° |
| 2026-04-22 01:03 | 41.99719 | -88.04632 | 11019 ft | 318 kts | 162° |
| 2026-04-22 01:03 | 41.97664 | -88.03584 | 11017 ft | 317 kts | 162° |
| 2026-04-22 01:04 | 41.95618 | -88.02540 | 11017 ft | 316 kts | 162° |
| 2026-04-22 01:04 | 41.93557 | -88.01492 | 11018 ft | 316 kts | 162° |
| 2026-04-22 01:04 | 41.91480 | -88.00436 | 11018 ft | 316 kts | 161° |
| 2026-04-22 01:04 | 41.89563 | -87.99012 | 10992 ft | 320 kts | 138° |
| 2026-04-22 01:05 | 41.88336 | -87.96553 | 11007 ft | 321 kts | 107° |
| 2026-04-22 01:05 | 41.88063 | -87.93613 | 11019 ft | 314 kts | 86° |
| 2026-04-22 01:05 | 41.88174 | -87.90756 | 10668 ft | 309 kts | 83° |
| 2026-04-22 01:05 | 41.88311 | -87.87847 | 10104 ft | 311 kts | 84° |
| 2026-04-22 01:06 | 41.88386 | -87.84992 | 9596 ft | 309 kts | 86° |
| 2026-04-22 01:06 | 41.88415 | -87.82105 | 9107 ft | 307 kts | 87° |
| 2026-04-22 01:06 | 41.88420 | -87.79282 | 8595 ft | 303 kts | 87° |
| 2026-04-22 01:06 | 41.88417 | -87.76449 | 7958 ft | 302 kts | 88° |
| 2026-04-22 01:07 | 41.88414 | -87.73669 | 7324 ft | 300 kts | 88° |
| 2026-04-22 01:07 | 41.88410 | -87.70888 | 6682 ft | 299 kts | 88° |
| 2026-04-22 01:07 | 41.88669 | -87.68170 | 6017 ft | 293 kts | 66° |
| 2026-04-22 01:07 | 41.89708 | -87.65916 | 5363 ft | 282 kts | 39° |
| 2026-04-22 01:08 | 41.91299 | -87.64590 | 4732 ft | 269 kts | 12° |
| 2026-04-22 01:08 | 41.93099 | -87.64223 | 4125 ft | 260 kts | 358° |
| 2026-04-22 01:08 | 41.94902 | -87.64138 | 3501 ft | 258 kts | 356° |
| 2026-04-22 01:08 | 41.96655 | -87.64092 | 3116 ft | 249 kts | 356° |
| 2026-04-22 01:09 | 41.98299 | -87.64333 | 2997 ft | 225 kts | 333° |
| 2026-04-22 01:09 | 41.99452 | -87.65507 | 2987 ft | 196 kts | 300° |
| 2026-04-22 01:09 | 41.99756 | -87.67108 | 3074 ft | 167 kts | 267° |
| 2026-04-22 01:09 | 41.99490 | -87.68529 | 3024 ft | 151 kts | 256° |
| 2026-04-22 01:10 | 41.99171 | -87.69866 | 3014 ft | 149 kts | 258° |
| 2026-04-22 01:10 | 41.98963 | -87.71231 | 3018 ft | 150 kts | 264° |
| 2026-04-22 01:10 | 41.98857 | -87.72641 | 2967 ft | 151 kts | 268° |
| 2026-04-22 01:10 | 41.98819 | -87.74055 | 2775 ft | 151 kts | 270° |
| 2026-04-22 01:11 | 41.98809 | -87.75450 | 2587 ft | 150 kts | 271° |
| 2026-04-22 01:11 | 41.98808 | -87.76849 | 2397 ft | 150 kts | 271° |
| 2026-04-22 01:11 | 41.98809 | -87.78249 | 2209 ft | 149 kts | 270° |
| 2026-04-22 01:11 | 41.98810 | -87.79637 | 2015 ft | 146 kts | 271° |
| 2026-04-22 01:12 | 41.98811 | -87.80952 | 1814 ft | 139 kts | 271° |
| 2026-04-22 01:12 | 41.98814 | -87.82256 | 1641 ft | 139 kts | 271° |
| 2026-04-22 01:12 | 41.98823 | -87.83575 | 1480 ft | 141 kts | 270° |
| 2026-04-22 01:12 | 41.98811 | -87.84898 | 1297 ft | 143 kts | 270° |
| 2026-04-22 01:13 | 41.98816 | -87.86240 | 1122 ft | 145 kts | 270° |
| 2026-04-22 01:13 | 41.98822 | -87.87611 | 911 ft | 148 kts | 270° |
| 2026-04-22 01:13 | 41.98824 | -87.88995 | 727 ft | 150 kts | 270° |
| 2026-04-22 01:13 | 41.98826 | -87.90305 | 674 ft | 121 kts | 270° |
| 2026-04-22 01:14 | 41.98827 | -87.91202 | 674 ft | 71 kts | 270° |
| 2026-04-22 01:14 | 41.98821 | -87.91679 | 674 ft | 41 kts | 261° |
| 2026-04-22 01:14 | 41.98734 | -87.91976 | 674 ft | 29 kts | 241° |
| 2026-04-22 01:14 | 41.98678 | -87.92218 | 674 ft | 24 kts | 271° |
| 2026-04-22 01:15 | 41.98645 | -87.92400 | 674 ft | 19 kts | 200° |
| 2026-04-22 01:15 | 41.98512 | -87.92407 | 674 ft | 18 kts | 180° |
| 2026-04-22 01:15 | 41.98383 | -87.92406 | 674 ft | 18 kts | 180° |
| 2026-04-22 01:15 | 41.98271 | -87.92406 | 674 ft | 0 kts | 181° |
| 2026-04-22 01:16 | 41.98270 | -87.92406 | 674 ft | 0 kts | 174° |
| 2026-04-22 01:16 | 41.98269 | -87.92386 | 674 ft | 4 kts | 76° |
| 2026-04-22 01:16 | 41.98275 | -87.92339 | 674 ft | 6 kts | 85° |
| 2026-04-22 01:16 | 41.98277 | -87.92266 | 674 ft | 9 kts | 89° |
| 2026-04-22 01:17 | 41.98277 | -87.92152 | 674 ft | 13 kts | 90° |
| 2026-04-22 01:17 | 41.98282 | -87.92022 | 674 ft | 14 kts | 85° |
| 2026-04-22 01:17 | 41.98287 | -87.91888 | 674 ft | 14 kts | 89° |
| 2026-04-22 01:17 | 41.98286 | -87.91744 | 674 ft | 15 kts | 90° |
| 2026-04-22 01:18 | 41.98288 | -87.91595 | 674 ft | 16 kts | 89° |
| 2026-04-22 01:18 | 41.98286 | -87.91440 | 674 ft | 16 kts | 91° |
| 2026-04-22 01:18 | 41.98286 | -87.91281 | 674 ft | 17 kts | 89° |
| 2026-04-22 01:18 | 41.98288 | -87.91117 | 674 ft | 17 kts | 90° |
| 2026-04-22 01:19 | 41.98286 | -87.90949 | 674 ft | 18 kts | 90° |
| 2026-04-22 01:19 | 41.98277 | -87.90827 | 674 ft | 9 kts | 123° |
| 2026-04-22 01:19 | 41.98215 | -87.90795 | 674 ft | 10 kts | 172° |
| 2026-04-22 01:19 | 41.98138 | -87.90784 | 674 ft | 11 kts | 175° |
| 2026-04-22 01:20 | 41.98053 | -87.90781 | 674 ft | 12 kts | 184° |
| 2026-04-22 01:20 | 41.98015 | -87.90771 | 674 ft | 0 kts | 102° |
| 2026-04-22 01:20 | 41.98010 | -87.90755 | 674 ft | 3 kts | 109° |
| 2026-04-22 01:20 | 41.98006 | -87.90726 | 674 ft | 0 kts | 100° |
| 2026-04-22 01:21 | 41.98005 | -87.90722 | 674 ft | 0 kts | 100° |